createdAt,value
2023-05-12T00:00:21.645Z,62.07
2023-05-12T00:03:10.173Z,62.14
2023-05-12T00:05:38.658Z,62.21
2023-05-12T00:08:07.353Z,62.18
2023-05-12T00:10:35.849Z,62.32
2023-05-12T00:13:04.342Z,62.44
2023-05-12T00:15:32.772Z,62.41
2023-05-12T00:18:01.363Z,62.36
2023-05-12T00:20:29.839Z,62.41
2023-05-12T00:23:00.311Z,62.43
2023-05-12T00:25:28.666Z,62.57
2023-05-12T00:27:57.144Z,62.60
2023-05-12T00:30:25.628Z,62.83
2023-05-12T00:32:54.012Z,62.79
2023-05-12T00:35:22.532Z,62.98
2023-05-12T00:37:50.986Z,62.98
2023-05-12T00:40:19.717Z,63.12
2023-05-12T00:42:48.268Z,63.16
2023-05-12T00:45:17.181Z,63.26
2023-05-12T00:47:46.649Z,63.36
2023-05-12T00:50:15.518Z,63.31
2023-05-12T00:52:44.174Z,63.51
2023-05-12T00:55:12.514Z,63.58
2023-05-12T00:57:42.760Z,63.62
2023-05-12T01:00:11.920Z,63.70
2023-05-12T01:02:40.522Z,63.79
2023-05-12T01:05:10.087Z,63.79
2023-05-12T01:07:39.709Z,63.84
2023-05-12T01:10:20.117Z,63.98
2023-05-12T01:12:50.740Z,64.01
2023-05-12T01:15:19.524Z,64.11
2023-05-12T01:17:56.145Z,64.31
2023-05-12T01:20:27.050Z,64.30
2023-05-12T01:22:57.835Z,64.50
2023-05-12T01:25:31.240Z,64.49
2023-05-12T01:28:00.712Z,64.68
2023-05-12T01:30:29.760Z,64.71
2023-05-12T01:32:58.331Z,64.78
2023-05-12T01:35:26.891Z,64.91
2023-05-12T01:37:55.454Z,64.96
2023-05-12T01:40:23.795Z,65.00
2023-05-12T01:42:52.830Z,65.10
2023-05-12T01:45:21.345Z,65.23
2023-05-12T01:47:49.765Z,65.32
2023-05-12T01:50:18.364Z,65.32
2023-05-12T01:52:46.990Z,65.45
2023-05-12T01:55:16.328Z,65.41
2023-05-12T01:57:44.710Z,65.62
2023-05-12T02:03:00.489Z,65.81
2023-05-12T02:05:29.327Z,65.80
2023-05-12T02:07:57.748Z,65.92
2023-05-12T02:10:26.270Z,66.17
2023-05-12T02:12:54.727Z,66.18
2023-05-12T02:15:24.662Z,66.28
2023-05-12T02:18:02.938Z,66.43
2023-05-12T02:20:31.357Z,66.58
2023-05-12T02:23:00.109Z,66.67
2023-05-12T02:25:28.428Z,66.73
2023-05-12T02:27:56.830Z,66.84
2023-05-12T02:30:25.236Z,66.95
2023-05-12T02:32:53.736Z,67.17
2023-05-12T02:35:22.109Z,67.28
2023-05-12T02:37:50.438Z,67.35
2023-05-12T02:40:18.949Z,67.47
2023-05-12T02:42:47.414Z,67.56
2023-05-12T02:45:15.773Z,67.72
2023-05-12T02:47:44.252Z,67.81
2023-05-12T02:50:12.601Z,67.91
2023-05-12T02:52:41.222Z,68.02
2023-05-12T02:55:09.597Z,68.16
2023-05-12T02:57:38.058Z,68.45
2023-05-12T03:00:07.605Z,68.51
2023-05-12T03:02:38.572Z,68.60
2023-05-12T03:05:09.312Z,68.68
2023-05-12T03:07:37.820Z,68.82
2023-05-12T03:10:06.990Z,68.86
2023-05-12T03:12:35.693Z,69.09
2023-05-12T03:15:05.824Z,69.03
2023-05-12T03:17:34.578Z,69.26
2023-05-12T03:20:04.721Z,69.37
2023-05-12T03:22:33.265Z,69.43
2023-05-12T03:25:01.736Z,69.60
2023-05-12T03:27:33.640Z,69.77
2023-05-12T03:30:05.669Z,69.77
2023-05-12T03:32:34.200Z,69.93
2023-05-12T03:35:02.695Z,70.05
2023-05-12T03:37:31.065Z,70.10
2023-05-12T03:39:59.471Z,70.23
2023-05-12T03:42:29.616Z,70.43
2023-05-12T03:44:58.767Z,70.43
2023-05-12T03:47:29.200Z,70.59
2023-05-12T03:49:58.952Z,70.65
2023-05-12T03:52:27.490Z,70.84
2023-05-12T03:54:55.856Z,70.88
2023-05-12T03:57:24.256Z,70.85
2023-05-12T03:59:52.619Z,70.97
2023-05-12T04:02:21.072Z,70.92
2023-05-12T04:04:49.473Z,71.13
2023-05-12T04:07:18.102Z,71.16
2023-05-12T04:09:46.691Z,71.25
2023-05-12T04:12:15.160Z,71.40
2023-05-12T04:14:44.225Z,71.48
2023-05-12T04:17:12.677Z,71.42
2023-05-12T04:19:41.126Z,71.61
2023-05-12T04:22:09.626Z,71.65
2023-05-12T04:24:38.942Z,71.73
2023-05-12T04:27:07.943Z,71.65
2023-05-12T04:29:37.080Z,71.81
2023-05-12T04:32:06.300Z,71.92
2023-05-12T04:34:35.566Z,71.92
2023-05-12T04:37:04.269Z,72.01
2023-05-12T04:39:33.116Z,71.99
2023-05-12T04:42:02.357Z,72.08
2023-05-12T04:44:30.926Z,71.99
2023-05-12T04:46:59.300Z,71.79
2023-05-12T04:49:27.812Z,71.70
2023-05-12T04:51:56.372Z,71.73
2023-05-12T04:54:25.509Z,71.61
2023-05-12T04:57:05.308Z,71.68
2023-05-12T04:59:33.821Z,71.58
2023-05-12T05:02:05.679Z,71.55
2023-05-12T05:04:40.687Z,71.49
2023-05-12T05:07:11.489Z,71.26
2023-05-12T05:09:40.849Z,71.34
2023-05-12T05:12:11.322Z,71.33
2023-05-12T05:14:49.181Z,71.16
2023-05-12T05:17:17.590Z,70.84
2023-05-12T05:19:54.823Z,70.67
2023-05-12T05:22:26.365Z,70.47
2023-05-12T05:25:02.728Z,70.31
2023-05-12T05:27:35.392Z,70.43
2023-05-12T05:30:05.709Z,70.35
2023-05-12T05:32:37.417Z,70.21
2023-05-12T05:35:08.460Z,70.16
2023-05-12T05:37:37.784Z,69.97
2023-05-12T05:40:07.861Z,69.85
2023-05-12T05:42:36.315Z,69.80
2023-05-12T05:45:05.337Z,69.67
2023-05-12T05:47:35.062Z,69.36
2023-05-12T05:50:06.215Z,69.34
2023-05-12T05:52:34.635Z,69.33
2023-05-12T05:55:03.324Z,69.22
2023-05-12T05:57:31.792Z,69.18
2023-05-12T06:00:00.349Z,68.85
2023-05-12T06:02:28.926Z,68.77
2023-05-12T06:04:57.534Z,68.53
2023-05-12T06:07:26.370Z,68.36
2023-05-12T06:09:55.063Z,68.30
2023-05-12T06:12:23.452Z,68.13
2023-05-12T06:14:56.616Z,68.24
2023-05-12T06:17:31.266Z,68.33
2023-05-12T06:20:00.915Z,68.25
2023-05-12T06:22:31.345Z,68.09
2023-05-12T06:24:59.796Z,67.92
2023-05-12T06:27:28.299Z,67.94
2023-05-12T06:29:56.884Z,67.86
2023-05-12T06:32:25.347Z,67.58
2023-05-12T06:34:53.867Z,67.17
2023-05-12T06:37:22.218Z,67.02
2023-05-12T06:39:50.550Z,66.95
2023-05-12T06:42:19.257Z,66.71
2023-05-12T06:44:47.591Z,66.65
2023-05-12T06:47:16.119Z,66.54
2023-05-12T06:49:44.548Z,66.63
2023-05-12T06:52:12.933Z,66.26
2023-05-12T06:54:41.411Z,66.07
2023-05-12T06:57:09.907Z,65.77
2023-05-12T06:59:38.302Z,65.66
2023-05-12T07:02:06.786Z,65.56
2023-05-12T07:04:36.538Z,65.43
2023-05-12T07:07:04.861Z,65.25
2023-05-12T07:09:33.271Z,65.33
2023-05-12T07:12:01.685Z,65.41
2023-05-12T07:14:30.540Z,65.27
2023-05-12T07:16:58.983Z,64.95
2023-05-12T07:19:27.388Z,64.90
2023-05-12T07:21:55.820Z,64.70
2023-05-12T07:24:25.744Z,64.83
2023-05-12T07:26:54.073Z,64.43
2023-05-12T07:29:22.615Z,64.29
2023-05-12T07:31:51.162Z,64.38
2023-05-12T07:34:19.814Z,64.10
2023-05-12T07:36:48.237Z,64.27
2023-05-12T07:39:19.619Z,64.22
2023-05-12T07:41:48.223Z,64.28
2023-05-12T07:44:17.266Z,64.10
2023-05-12T07:46:45.892Z,63.89
2023-05-12T07:49:14.431Z,64.02
2023-05-12T07:51:43.018Z,63.68
2023-05-12T07:54:12.475Z,63.67
2023-05-12T07:56:40.930Z,63.78
2023-05-12T07:59:09.323Z,63.48
2023-05-12T08:01:37.901Z,63.44
2023-05-12T08:04:11.344Z,63.23
2023-05-12T08:06:40.681Z,63.01
2023-05-12T08:09:09.164Z,62.82
2023-05-12T08:11:37.803Z,62.52
2023-05-12T08:14:08.520Z,62.64
2023-05-12T08:16:38.814Z,62.49
2023-05-12T08:19:28.372Z,62.31
2023-05-12T08:21:58.224Z,62.35
2023-05-12T08:24:27.518Z,62.17
2023-05-12T08:26:57.195Z,61.82
2023-05-12T08:29:27.136Z,61.59
2023-05-12T08:31:56.165Z,61.76
2023-05-12T08:34:25.829Z,61.73
2023-05-12T08:36:55.233Z,61.57
2023-05-12T08:39:23.789Z,61.25
2023-05-12T08:42:07.381Z,60.96
2023-05-12T08:44:38.077Z,61.20
2023-05-12T08:47:07.285Z,60.79
2023-05-12T08:49:38.838Z,60.46
2023-05-12T08:52:08.215Z,60.44
2023-05-12T08:54:48.673Z,60.38
2023-05-12T08:57:29.468Z,60.15
2023-05-12T09:00:01.766Z,59.68
2023-05-12T09:02:44.663Z,59.56
2023-05-12T09:05:20.805Z,59.40
2023-05-12T09:07:50.446Z,59.72
2023-05-12T09:10:34.289Z,59.75
2023-05-12T09:13:14.743Z,59.15
2023-05-12T09:15:48.115Z,58.78
2023-05-12T09:18:16.719Z,58.55
2023-05-12T09:20:45.094Z,58.60
2023-05-12T09:23:23.535Z,58.15
2023-05-12T09:26:01.800Z,58.06
2023-05-12T09:28:38.157Z,57.82
2023-05-12T09:31:21.387Z,57.26
2023-05-12T09:33:51.881Z,57.30
2023-05-12T09:36:25.429Z,56.98
2023-05-12T09:39:07.267Z,56.54
2023-05-12T09:41:37.790Z,56.30
2023-05-12T09:44:11.421Z,56.09
2023-05-12T09:46:42.622Z,56.26
2023-05-12T09:49:12.011Z,56.14
2023-05-12T09:51:40.939Z,55.77
2023-05-12T09:54:49.261Z,55.50
2023-05-12T09:57:20.270Z,54.92
2023-05-12T09:59:49.722Z,54.64
2023-05-12T10:02:19.023Z,54.80
2023-05-12T10:04:52.820Z,54.38
2023-05-12T10:07:26.169Z,54.18
2023-05-12T10:10:00.035Z,54.04
2023-05-12T10:12:28.771Z,53.68
2023-05-12T10:14:59.330Z,53.33
2023-05-12T10:17:29.095Z,52.31
2023-05-12T10:19:58.324Z,52.44
2023-05-12T10:22:27.678Z,52.53
2023-05-12T10:24:58.792Z,52.21
2023-05-12T10:27:27.816Z,51.90
2023-05-12T10:29:56.610Z,51.70
2023-05-12T10:32:25.144Z,50.93
2023-05-12T10:34:54.958Z,50.61
2023-05-12T10:37:23.957Z,50.57
2023-05-12T10:40:01.132Z,50.19
2023-05-12T10:42:43.076Z,49.40
2023-05-12T10:45:17.909Z,49.06
2023-05-12T10:47:47.838Z,48.67
2023-05-12T10:50:27.174Z,48.19
2023-05-12T10:52:57.017Z,48.22
2023-05-12T10:55:34.878Z,48.16
2023-05-12T10:58:12.232Z,47.93
2023-05-12T11:00:47.964Z,47.91
2023-05-12T11:03:25.704Z,48.02
2023-05-12T11:06:05.148Z,48.18
2023-05-12T11:08:37.837Z,48.38
2023-05-12T11:11:06.621Z,48.13
2023-05-12T11:13:35.694Z,47.38
2023-05-12T11:16:04.507Z,47.03
2023-05-12T11:18:33.084Z,46.83
2023-05-12T11:21:12.019Z,47.05
2023-05-12T11:23:42.263Z,47.25
2023-05-12T11:26:18.734Z,46.88
2023-05-12T11:28:47.344Z,46.53
2023-05-12T11:31:20.395Z,46.40
2023-05-12T11:33:55.888Z,46.63
2023-05-12T11:36:37.374Z,46.50
2023-05-12T11:39:07.120Z,46.82
2023-05-12T11:41:35.424Z,47.48
2023-05-12T11:44:23.557Z,47.03
2023-05-12T11:47:13.773Z,46.50
2023-05-12T11:49:51.635Z,45.72
2023-05-12T11:52:23.363Z,45.19
2023-05-12T11:55:03.237Z,44.98
2023-05-12T11:57:34.335Z,45.25
2023-05-12T12:00:07.979Z,45.17
2023-05-12T12:02:37.477Z,45.32
2023-05-12T12:05:18.300Z,45.63
2023-05-12T12:07:47.166Z,45.90
2023-05-12T12:10:18.878Z,45.86
2023-05-12T12:12:47.573Z,45.19
2023-05-12T12:15:16.012Z,44.39
2023-05-12T12:17:44.809Z,44.30
2023-05-12T12:20:14.242Z,43.98
2023-05-12T12:22:42.611Z,43.87
2023-05-12T12:25:11.189Z,43.76
2023-05-12T12:27:39.547Z,43.87
2023-05-12T12:30:08.773Z,44.29
2023-05-12T12:32:37.525Z,44.66
2023-05-12T12:35:06.828Z,44.50
2023-05-12T12:37:35.122Z,44.10
2023-05-12T12:40:08.158Z,44.20
2023-05-12T12:42:38.459Z,43.94
2023-05-12T12:45:08.532Z,43.73
2023-05-12T12:47:38.964Z,43.84
2023-05-12T12:50:10.027Z,43.97
2023-05-12T12:52:38.722Z,44.11
2023-05-12T12:55:07.826Z,44.08
2023-05-12T12:57:36.373Z,44.01
2023-05-12T13:00:05.786Z,44.01
2023-05-12T13:02:34.669Z,44.32
2023-05-12T13:05:04.233Z,44.45
2023-05-12T13:07:33.561Z,44.29
2023-05-12T13:10:03.147Z,44.10
2023-05-12T13:12:31.600Z,44.33
2023-05-12T13:15:03.139Z,44.49
2023-05-12T13:17:31.512Z,44.40
2023-05-12T13:20:00.029Z,44.36
2023-05-12T13:22:29.809Z,44.41
2023-05-12T13:24:58.344Z,44.24
2023-05-12T13:27:26.795Z,44.27
2023-05-12T13:29:55.113Z,44.30
2023-05-12T13:32:23.551Z,44.31
2023-05-12T13:34:52.006Z,44.26
2023-05-12T13:37:20.502Z,44.23
2023-05-12T13:39:48.871Z,44.26
2023-05-12T13:42:17.391Z,44.25
2023-05-12T13:44:45.786Z,44.02
2023-05-12T13:47:14.772Z,44.18
2023-05-12T13:49:43.213Z,44.46
2023-05-12T13:52:11.571Z,44.67
2023-05-12T13:54:39.951Z,44.82
2023-05-12T13:57:08.329Z,44.77
2023-05-12T13:59:36.698Z,45.11
2023-05-12T14:02:09.413Z,45.29
2023-05-12T14:04:38.174Z,45.38
2023-05-12T14:07:08.546Z,45.60
2023-05-12T14:09:37.550Z,45.52
2023-05-12T14:12:06.725Z,45.70
2023-05-12T14:14:35.566Z,45.61
2023-05-12T14:17:04.428Z,45.45
2023-05-12T14:19:33.047Z,45.33
2023-05-12T14:22:02.334Z,45.37
2023-05-12T14:24:31.708Z,45.36
2023-05-12T14:27:00.177Z,45.17
2023-05-12T14:29:28.818Z,45.32
2023-05-12T14:31:57.588Z,45.60
2023-05-12T14:34:26.152Z,45.69
2023-05-12T14:36:54.663Z,45.56
2023-05-12T14:39:23.019Z,45.57
2023-05-12T14:41:51.427Z,45.45
2023-05-12T14:44:19.794Z,45.30
2023-05-12T14:46:48.234Z,45.14
2023-05-12T14:49:20.659Z,45.14
2023-05-12T14:51:49.619Z,45.03
2023-05-12T14:54:25.123Z,45.08
2023-05-12T14:56:54.519Z,45.11
2023-05-12T14:59:22.986Z,45.01
2023-05-12T15:01:51.432Z,45.24
2023-05-12T15:04:19.817Z,45.24
2023-05-12T15:06:48.258Z,45.08
2023-05-12T15:09:17.349Z,44.89
2023-05-12T15:11:45.825Z,44.63
2023-05-12T15:14:14.314Z,44.73
2023-05-12T15:16:42.766Z,44.67
2023-05-12T15:19:11.358Z,44.50
2023-05-12T15:21:39.749Z,44.44
2023-05-12T15:24:08.477Z,44.49
2023-05-12T15:26:39.603Z,44.34
2023-05-12T15:29:08.653Z,43.83
2023-05-12T15:31:37.112Z,44.08
2023-05-12T15:34:05.565Z,44.64
2023-05-12T15:36:34.002Z,44.89
2023-05-12T15:39:03.900Z,44.91
2023-05-12T15:41:32.854Z,45.15
2023-05-12T15:44:01.217Z,45.27
2023-05-12T15:46:30.881Z,45.63
2023-05-12T15:48:59.340Z,45.35
2023-05-12T15:51:31.538Z,44.74
2023-05-12T15:53:59.899Z,44.34
2023-05-12T15:56:28.251Z,44.07
2023-05-12T15:58:56.872Z,43.92
2023-05-12T16:01:25.934Z,43.82
2023-05-12T16:03:54.557Z,43.18
2023-05-12T16:06:23.147Z,42.81
2023-05-12T16:08:51.858Z,42.37
2023-05-12T16:11:20.359Z,41.89
2023-05-12T16:13:48.918Z,41.77
2023-05-12T16:16:17.710Z,41.74
2023-05-12T16:18:46.097Z,41.77
2023-05-12T16:21:14.439Z,41.31
2023-05-12T16:23:42.770Z,40.58
2023-05-12T16:26:11.148Z,40.16
2023-05-12T16:28:39.567Z,39.68
2023-05-12T16:31:07.904Z,39.17
2023-05-12T16:33:36.271Z,38.98
2023-05-12T16:36:04.823Z,39.04
2023-05-12T16:38:34.815Z,38.56
2023-05-12T16:41:03.248Z,38.44
2023-05-12T16:43:31.781Z,37.99
2023-05-12T16:46:02.136Z,37.83
2023-05-12T16:48:34.384Z,37.69
2023-05-12T16:51:05.802Z,37.56
2023-05-12T16:53:34.937Z,37.06
2023-05-12T16:56:12.477Z,36.76
2023-05-12T16:58:41.035Z,36.37
2023-05-12T17:01:09.565Z,35.99
2023-05-12T17:03:39.096Z,35.81
2023-05-12T17:06:07.849Z,35.57
2023-05-12T17:08:36.496Z,35.45
2023-05-12T17:11:05.563Z,35.29
2023-05-12T17:13:38.399Z,34.94
2023-05-12T17:16:07.083Z,35.23
2023-05-12T17:19:13.620Z,34.83
2023-05-12T17:21:24.067Z,34.66
2023-05-12T17:23:53.884Z,34.47
2023-05-12T17:26:22.765Z,34.26
2023-05-12T17:28:51.253Z,34.35
2023-05-12T17:31:19.707Z,34.23
2023-05-12T17:33:48.136Z,34.13
2023-05-12T17:36:18.610Z,33.83
2023-05-12T17:38:47.032Z,33.92
2023-05-12T17:41:16.170Z,34.05
2023-05-12T17:43:44.540Z,33.78
2023-05-12T17:46:13.762Z,33.69
2023-05-12T17:48:42.852Z,33.55
2023-05-12T17:51:11.884Z,33.72
2023-05-12T18:07:02.594Z,34.34
2023-05-12T18:09:31.290Z,34.32
2023-05-12T18:12:01.255Z,34.63
2023-05-12T18:14:42.441Z,34.92
2023-05-12T18:17:11.337Z,35.33
2023-05-12T18:19:41.586Z,35.64
2023-05-12T18:22:11.368Z,36.03
2023-05-12T18:24:41.237Z,36.43
2023-05-12T18:27:09.657Z,36.85
2023-05-12T18:29:38.932Z,37.34
2023-05-12T18:32:07.770Z,37.81
2023-05-12T18:34:36.201Z,38.39
2023-05-12T18:37:07.172Z,38.65
2023-05-12T18:39:35.570Z,39.06
2023-05-12T18:42:04.944Z,39.35
2023-05-12T18:44:33.859Z,39.77
2023-05-12T18:47:03.658Z,40.05
2023-05-12T18:49:32.386Z,40.40
2023-05-12T18:52:05.245Z,40.67
2023-05-12T18:54:33.770Z,41.02
2023-05-12T18:57:03.362Z,41.28
2023-05-12T18:59:32.938Z,41.66
2023-05-12T19:02:01.593Z,41.88
2023-05-12T19:04:30.149Z,42.28
2023-05-12T19:06:58.582Z,42.51
2023-05-12T19:09:28.912Z,42.86
2023-05-12T19:12:03.512Z,43.18
2023-05-12T19:14:31.931Z,43.54
2023-05-12T19:17:00.350Z,43.88
2023-05-12T19:19:29.238Z,44.24
2023-05-12T19:21:57.904Z,44.50
2023-05-12T19:24:27.193Z,44.85
2023-05-12T19:26:55.872Z,45.17
2023-05-12T19:29:24.554Z,45.33
2023-05-12T19:31:53.238Z,45.57
2023-05-12T19:34:33.767Z,45.95
2023-05-12T19:37:07.206Z,46.07
2023-05-12T19:39:37.998Z,46.29
2023-05-12T19:42:06.653Z,46.43
2023-05-12T19:44:35.045Z,46.72
2023-05-12T19:47:08.654Z,46.90
2023-05-12T19:49:37.229Z,47.20
2023-05-12T19:52:06.562Z,47.41
2023-05-12T19:54:34.936Z,47.80
2023-05-12T19:57:03.598Z,47.93
2023-05-12T19:59:31.988Z,48.20
2023-05-12T20:02:00.436Z,48.48
2023-05-12T20:04:29.033Z,48.66
2023-05-12T20:06:57.543Z,48.90
2023-05-12T20:09:26.065Z,49.01
2023-05-12T20:11:54.615Z,49.26
2023-05-12T20:14:23.161Z,49.61
2023-05-12T20:16:51.677Z,49.64
2023-05-12T20:19:20.065Z,49.81
2023-05-12T20:21:48.456Z,50.01
2023-05-12T20:24:16.831Z,50.19
2023-05-12T20:26:45.310Z,50.28
2023-05-12T20:29:20.952Z,50.68
2023-05-12T20:31:51.322Z,50.84
2023-05-12T20:34:19.887Z,50.99
2023-05-12T20:36:48.650Z,51.15
2023-05-12T20:39:17.015Z,51.28
2023-05-12T20:41:46.530Z,51.51
2023-05-12T20:44:14.957Z,51.81
2023-05-12T20:46:43.430Z,51.69
2023-05-12T20:49:11.811Z,51.96
2023-05-12T20:51:40.543Z,51.98
2023-05-12T20:54:08.862Z,52.11
2023-05-12T20:56:37.201Z,52.26
2023-05-12T20:59:05.558Z,52.52
2023-05-12T21:01:33.981Z,52.59
2023-05-12T21:04:02.510Z,52.90
2023-05-12T21:06:31.442Z,53.01
2023-05-12T21:08:59.869Z,53.20
2023-05-12T21:11:28.173Z,53.37
2023-05-12T21:13:56.581Z,53.30
2023-05-12T21:16:25.181Z,53.69
2023-05-12T21:18:53.613Z,53.61
2023-05-12T21:21:22.274Z,53.74
2023-05-12T21:23:50.712Z,53.84
2023-05-12T21:26:19.088Z,53.97
2023-05-12T21:28:47.449Z,54.20
2023-05-12T21:31:15.826Z,54.09
2023-05-12T21:33:44.203Z,54.13
2023-05-12T21:36:12.736Z,54.24
2023-05-12T21:38:41.100Z,54.39
2023-05-12T21:41:09.437Z,54.29
2023-05-12T21:43:37.722Z,54.53
2023-05-12T21:46:06.271Z,54.49
2023-05-12T21:48:34.789Z,54.54
2023-05-12T21:51:03.797Z,54.65
2023-05-12T21:53:32.304Z,54.83
2023-05-12T21:56:00.780Z,54.92
2023-05-12T21:58:30.241Z,55.11
2023-05-12T22:00:59.118Z,55.12
2023-05-12T22:03:27.480Z,55.23
2023-05-12T22:05:56.909Z,55.35
2023-05-12T22:08:25.507Z,55.37
2023-05-12T22:10:53.833Z,55.49
2023-05-12T22:13:22.174Z,55.66
2023-05-12T22:15:50.516Z,55.58
2023-05-12T22:18:19.687Z,55.76
2023-05-12T22:20:48.081Z,55.81
2023-05-12T22:23:16.399Z,55.95
2023-05-12T22:25:44.728Z,56.08
2023-05-12T22:28:13.365Z,56.14
2023-05-12T22:30:41.994Z,56.36
2023-05-12T22:33:10.402Z,56.51
2023-05-12T22:44:43.392Z,56.81
2023-05-12T22:47:11.855Z,57.03
2023-05-12T22:59:36.422Z,57.45
2023-05-12T23:02:05.085Z,57.45
2023-05-12T23:04:33.469Z,57.54
2023-05-12T23:07:01.908Z,57.53
2023-05-12T23:09:30.316Z,57.68
2023-05-12T23:11:58.676Z,57.68
2023-05-12T23:14:26.992Z,57.72
2023-05-12T23:16:55.367Z,57.68
2023-05-12T23:19:23.858Z,57.79
2023-05-12T23:21:52.274Z,57.89
2023-05-12T23:34:47.213Z,58.35
2023-05-12T23:37:15.944Z,58.42
2023-05-12T23:39:44.654Z,58.38
2023-05-12T23:42:13.010Z,58.66
2023-05-12T23:44:41.338Z,58.56
2023-05-12T23:47:09.665Z,58.80
2023-05-12T23:49:38.054Z,58.89
2023-05-12T23:52:06.751Z,58.98
2023-05-12T23:54:35.090Z,58.98
2023-05-12T23:57:04.501Z,59.14
2023-05-12T23:59:32.841Z,59.18
